sensor_id;sensor_type;location;lat;lon;timestamp;P1;durP1;ratioP1;P2;durP2;ratioP2
57535;SDS011;43361;49.790;8.960;2022-07-23T00:07:08;4.00;;;2.92;;
57535;SDS011;43361;49.790;8.960;2022-07-23T00:17:09;3.58;;;2.88;;
57535;SDS011;43361;49.790;8.960;2022-07-23T00:27:10;2.90;;;2.70;;
57535;SDS011;43361;49.790;8.960;2022-07-23T00:37:11;2.92;;;2.63;;
57535;SDS011;43361;49.790;8.960;2022-07-23T00:47:13;7.80;;;3.30;;
57535;SDS011;43361;49.790;8.960;2022-07-23T00:57:13;2.97;;;2.55;;
57535;SDS011;43361;49.790;8.960;2022-07-23T01:07:15;3.10;;;2.80;;
57535;SDS011;43361;49.790;8.960;2022-07-23T01:17:17;4.05;;;2.97;;
57535;SDS011;43361;49.790;8.960;2022-07-23T01:27:19;3.70;;;3.00;;
57535;SDS011;43361;49.790;8.960;2022-07-23T01:37:19;3.00;;;2.70;;
57535;SDS011;43361;49.790;8.960;2022-07-23T01:47:21;3.10;;;2.80;;
57535;SDS011;43361;49.790;8.960;2022-07-23T01:57:22;4.00;;;2.95;;
57535;SDS011;43361;49.790;8.960;2022-07-23T02:07:23;3.00;;;2.70;;
57535;SDS011;43361;49.790;8.960;2022-07-23T02:17:24;4.13;;;3.03;;
57535;SDS011;43361;49.790;8.960;2022-07-23T02:27:26;3.28;;;2.95;;
57535;SDS011;43361;49.790;8.960;2022-07-23T02:37:26;3.25;;;2.95;;
57535;SDS011;43361;49.790;8.960;2022-07-23T02:47:28;3.70;;;2.70;;
57535;SDS011;43361;49.790;8.960;2022-07-23T02:57:28;2.97;;;2.67;;
57535;SDS011;43361;49.790;8.960;2022-07-23T03:07:30;3.38;;;2.90;;
57535;SDS011;43361;49.790;8.960;2022-07-23T03:17:30;2.88;;;2.58;;
57535;SDS011;43361;49.790;8.960;2022-07-23T03:27:32;2.80;;;2.50;;
57535;SDS011;43361;49.790;8.960;2022-07-23T03:37:32;2.95;;;2.65;;
57535;SDS011;43361;49.790;8.960;2022-07-23T03:47:34;2.63;;;2.40;;
57535;SDS011;43361;49.790;8.960;2022-07-23T03:57:35;2.70;;;2.50;;
57535;SDS011;43361;49.790;8.960;2022-07-23T04:07:36;3.38;;;2.40;;
57535;SDS011;43361;49.790;8.960;2022-07-23T04:17:37;3.10;;;2.80;;
57535;SDS011;43361;49.790;8.960;2022-07-23T04:27:39;3.05;;;2.22;;
57535;SDS011;43361;49.790;8.960;2022-07-23T04:37:39;2.53;;;2.25;;
57535;SDS011;43361;49.790;8.960;2022-07-23T04:47:41;2.53;;;2.33;;
57535;SDS011;43361;49.790;8.960;2022-07-23T04:57:41;2.40;;;2.20;;
57535;SDS011;43361;49.790;8.960;2022-07-23T05:07:43;2.57;;;2.37;;
57535;SDS011;43361;49.790;8.960;2022-07-23T05:17:44;2.33;;;2.10;;
57535;SDS011;43361;49.790;8.960;2022-07-23T05:27:46;2.78;;;2.20;;
57535;SDS011;43361;49.790;8.960;2022-07-23T05:37:46;2.53;;;2.30;;
57535;SDS011;43361;49.790;8.960;2022-07-23T05:47:48;2.88;;;2.28;;
57535;SDS011;43361;49.790;8.960;2022-07-23T05:57:49;2.42;;;2.22;;
57535;SDS011;43361;49.790;8.960;2022-07-23T06:07:51;2.63;;;2.42;;
57535;SDS011;43361;49.790;8.960;2022-07-23T06:17:51;2.58;;;2.20;;
57535;SDS011;43361;49.790;8.960;2022-07-23T06:27:53;2.20;;;2.00;;
57535;SDS011;43361;49.790;8.960;2022-07-23T06:37:53;2.60;;;2.40;;
57535;SDS011;43361;49.790;8.960;2022-07-23T06:47:55;7.57;;;2.22;;
57535;SDS011;43361;49.790;8.960;2022-07-23T06:57:55;6.30;;;2.50;;
57535;SDS011;43361;49.790;8.960;2022-07-23T07:07:58;9.60;;;2.70;;
57535;SDS011;43361;49.790;8.960;2022-07-23T07:17:58;2.67;;;2.38;;
57535;SDS011;43361;49.790;8.960;2022-07-23T07:28:00;8.43;;;2.92;;
57535;SDS011;43361;49.790;8.960;2022-07-23T07:38:00;8.40;;;5.47;;
57535;SDS011;43361;49.790;8.960;2022-07-23T07:48:02;8.95;;;5.53;;
57535;SDS011;43361;49.790;8.960;2022-07-23T07:58:03;8.60;;;5.05;;
57535;SDS011;43361;49.790;8.960;2022-07-23T08:08:05;8.93;;;5.60;;
57535;SDS011;43361;49.790;8.960;2022-07-23T08:18:05;8.35;;;5.10;;
57535;SDS011;43361;49.790;8.960;2022-07-23T08:28:07;6.60;;;5.20;;
57535;SDS011;43361;49.790;8.960;2022-07-23T08:38:08;5.53;;;4.22;;
57535;SDS011;43361;49.790;8.960;2022-07-23T08:48:12;8.13;;;5.70;;
57535;SDS011;43361;49.790;8.960;2022-07-23T08:58:12;8.68;;;5.28;;
57535;SDS011;43361;49.790;8.960;2022-07-23T09:08:15;6.28;;;4.78;;
57535;SDS011;43361;49.790;8.960;2022-07-23T09:18:16;8.90;;;5.22;;
57535;SDS011;43361;49.790;8.960;2022-07-23T09:28:18;9.15;;;4.80;;
57535;SDS011;43361;49.790;8.960;2022-07-23T09:38:19;5.78;;;4.57;;
57535;SDS011;43361;49.790;8.960;2022-07-23T09:48:21;6.80;;;4.80;;
57535;SDS011;43361;49.790;8.960;2022-07-23T09:58:22;6.38;;;4.00;;
57535;SDS011;43361;49.790;8.960;2022-07-23T10:08:24;5.53;;;3.97;;
57535;SDS011;43361;49.790;8.960;2022-07-23T10:18:24;5.78;;;3.50;;
57535;SDS011;43361;49.790;8.960;2022-07-23T10:38:47;4.00;;;3.50;;
57535;SDS011;43361;49.790;8.960;2022-07-23T10:48:55;6.68;;;3.83;;
57535;SDS011;43361;49.790;8.960;2022-07-23T10:59:17;6.82;;;4.05;;
57535;SDS011;43361;49.790;8.960;2022-07-23T11:09:23;4.30;;;3.85;;
57535;SDS011;43361;49.790;8.960;2022-07-23T11:19:24;7.38;;;3.78;;
57535;SDS011;43361;49.790;8.960;2022-07-23T11:29:41;5.93;;;4.28;;
57535;SDS011;43361;49.790;8.960;2022-07-23T11:39:43;6.43;;;3.90;;
57535;SDS011;43361;49.790;8.960;2022-07-23T11:49:51;5.03;;;3.55;;
57535;SDS011;43361;49.790;8.960;2022-07-23T11:59:54;4.10;;;3.35;;
57535;SDS011;43361;49.790;8.960;2022-07-23T12:09:55;5.63;;;3.58;;
57535;SDS011;43361;49.790;8.960;2022-07-23T12:19:58;3.53;;;3.20;;
57535;SDS011;43361;49.790;8.960;2022-07-23T12:29:58;4.10;;;3.25;;
57535;SDS011;43361;49.790;8.960;2022-07-23T12:40:07;3.90;;;3.50;;
57535;SDS011;43361;49.790;8.960;2022-07-23T12:50:30;5.18;;;3.65;;
57535;SDS011;43361;49.790;8.960;2022-07-23T13:00:32;4.60;;;3.15;;
57535;SDS011;43361;49.790;8.960;2022-07-23T13:10:33;3.72;;;3.28;;
57535;SDS011;43361;49.790;8.960;2022-07-23T13:20:34;4.43;;;3.83;;
57535;SDS011;43361;49.790;8.960;2022-07-23T13:30:35;3.63;;;3.22;;
57535;SDS011;43361;49.790;8.960;2022-07-23T13:40:37;3.25;;;2.90;;
57535;SDS011;43361;49.790;8.960;2022-07-23T13:50:42;6.22;;;3.20;;
57535;SDS011;43361;49.790;8.960;2022-07-23T14:00:45;4.40;;;4.00;;
57535;SDS011;43361;49.790;8.960;2022-07-23T14:10:45;4.97;;;3.75;;
57535;SDS011;43361;49.790;8.960;2022-07-23T14:20:47;6.57;;;3.33;;
57535;SDS011;43361;49.790;8.960;2022-07-23T14:30:48;6.90;;;3.60;;
57535;SDS011;43361;49.790;8.960;2022-07-23T14:40:50;9.20;;;3.83;;
57535;SDS011;43361;49.790;8.960;2022-07-23T14:50:50;17.67;;;4.65;;
57535;SDS011;43361;49.790;8.960;2022-07-23T15:00:52;6.47;;;3.55;;
57535;SDS011;43361;49.790;8.960;2022-07-23T15:10:52;5.75;;;3.65;;
57535;SDS011;43361;49.790;8.960;2022-07-23T15:20:54;5.03;;;3.83;;
57535;SDS011;43361;49.790;8.960;2022-07-23T15:30:55;9.70;;;3.97;;
57535;SDS011;43361;49.790;8.960;2022-07-23T15:40:56;6.28;;;3.88;;
57535;SDS011;43361;49.790;8.960;2022-07-23T15:50:57;7.68;;;4.43;;
57535;SDS011;43361;49.790;8.960;2022-07-23T16:00:59;9.40;;;3.88;;
57535;SDS011;43361;49.790;8.960;2022-07-23T16:11:03;7.15;;;4.35;;
57535;SDS011;43361;49.790;8.960;2022-07-23T16:21:05;7.88;;;3.72;;
57535;SDS011;43361;49.790;8.960;2022-07-23T16:31:05;5.30;;;3.83;;
57535;SDS011;43361;49.790;8.960;2022-07-23T16:41:07;4.97;;;3.58;;
57535;SDS011;43361;49.790;8.960;2022-07-23T16:51:07;7.53;;;3.47;;
57535;SDS011;43361;49.790;8.960;2022-07-23T17:01:09;6.47;;;3.40;;
57535;SDS011;43361;49.790;8.960;2022-07-23T17:11:10;4.60;;;3.28;;
57535;SDS011;43361;49.790;8.960;2022-07-23T17:21:11;5.43;;;3.47;;
57535;SDS011;43361;49.790;8.960;2022-07-23T17:31:12;6.13;;;3.70;;
57535;SDS011;43361;49.790;8.960;2022-07-23T17:41:14;4.75;;;3.40;;
57535;SDS011;43361;49.790;8.960;2022-07-23T17:51:14;4.03;;;3.45;;
57535;SDS011;43361;49.790;8.960;2022-07-23T18:01:16;5.50;;;3.80;;
57535;SDS011;43361;49.790;8.960;2022-07-23T18:11:17;4.43;;;3.30;;
57535;SDS011;43361;49.790;8.960;2022-07-23T18:21:19;5.65;;;3.53;;
57535;SDS011;43361;49.790;8.960;2022-07-23T18:31:20;5.05;;;3.50;;
57535;SDS011;43361;49.790;8.960;2022-07-23T18:41:22;4.22;;;3.50;;
57535;SDS011;43361;49.790;8.960;2022-07-23T18:51:23;4.95;;;3.33;;
57535;SDS011;43361;49.790;8.960;2022-07-23T19:01:34;4.60;;;3.13;;
57535;SDS011;43361;49.790;8.960;2022-07-23T19:11:41;4.00;;;2.95;;
57535;SDS011;43361;49.790;8.960;2022-07-23T20:04:25;4.93;;;3.08;;
57535;SDS011;43361;49.790;8.960;2022-07-23T20:25:11;4.18;;;3.25;;
57535;SDS011;43361;49.790;8.960;2022-07-23T20:35:24;4.35;;;3.13;;
57535;SDS011;43361;49.790;8.960;2022-07-23T20:56:16;4.15;;;3.10;;
57535;SDS011;43361;49.790;8.960;2022-07-23T21:06:36;4.05;;;2.78;;
57535;SDS011;43361;49.790;8.960;2022-07-23T21:16:38;2.95;;;2.60;;
57535;SDS011;43361;49.790;8.960;2022-07-23T21:26:38;4.82;;;2.97;;
57535;SDS011;43361;49.790;8.960;2022-07-23T21:36:40;4.25;;;2.97;;
57535;SDS011;43361;49.790;8.960;2022-07-23T21:46:41;3.22;;;2.45;;
57535;SDS011;43361;49.790;8.960;2022-07-23T21:56:43;3.30;;;2.75;;
57535;SDS011;43361;49.790;8.960;2022-07-23T22:06:44;3.72;;;2.97;;
57535;SDS011;43361;49.790;8.960;2022-07-23T22:16:46;3.30;;;2.95;;
57535;SDS011;43361;49.790;8.960;2022-07-23T22:26:46;3.33;;;2.60;;
57535;SDS011;43361;49.790;8.960;2022-07-23T22:36:48;2.60;;;2.28;;
57535;SDS011;43361;49.790;8.960;2022-07-23T22:46:48;2.97;;;2.28;;
57535;SDS011;43361;49.790;8.960;2022-07-23T22:56:50;2.30;;;2.10;;
57535;SDS011;43361;49.790;8.960;2022-07-23T23:06:50;3.15;;;2.50;;
57535;SDS011;43361;49.790;8.960;2022-07-23T23:16:52;3.33;;;2.33;;
57535;SDS011;43361;49.790;8.960;2022-07-23T23:26:53;2.60;;;2.30;;
57535;SDS011;43361;49.790;8.960;2022-07-23T23:36:55;3.03;;;2.28;;
57535;SDS011;43361;49.790;8.960;2022-07-23T23:46:55;2.92;;;2.40;;
57535;SDS011;43361;49.790;8.960;2022-07-23T23:56:57;2.45;;;2.25;;
